Map

Track Data

SID SEASON NUMBER BASIN SUBBASIN NAME ISO_TIME NATURE LAT LON WMO_WIND WMO_PRES WMO_AGENCY TRACK_TYPE DIST2LAND LANDFALL IFLAG USA_AGENCY USA_ATCF_ID USA_LAT USA_LON USA_RECORD USA_STATUS USA_WIND USA_PRES USA_SSHS USA_R34_NE USA_R34_SE USA_R34_SW USA_R34_NW USA_R50_NE USA_R50_SE USA_R50_SW USA_R50_NW USA_R64_NE USA_R64_SE USA_R64_SW USA_R64_NW USA_POCI USA_ROCI USA_RMW USA_EYE TOKYO_LAT TOKYO_LON TOKYO_GRADE TOKYO_WIND TOKYO_PRES TOKYO_R50_DIR TOKYO_R50_LONG TOKYO_R50_SHORT TOKYO_R30_DIR TOKYO_R30_LONG TOKYO_R30_SHORT TOKYO_LAND CMA_LAT CMA_LON CMA_CAT CMA_WIND CMA_PRES HKO_LAT HKO_LON HKO_CAT HKO_WIND HKO_PRES NEWDELHI_LAT NEWDELHI_LON NEWDELHI_GRADE NEWDELHI_WIND NEWDELHI_PRES NEWDELHI_CI NEWDELHI_DP NEWDELHI_POCI REUNION_LAT REUNION_LON REUNION_TYPE REUNION_WIND REUNION_PRES REUNION_TNUM REUNION_CI REUNION_RMW REUNION_R34_NE REUNION_R34_SE REUNION_R34_SW REUNION_R34_NW REUNION_R50_NE REUNION_R50_SE REUNION_R50_SW REUNION_R50_NW REUNION_R64_NE REUNION_R64_SE REUNION_R64_SW REUNION_R64_NW BOM_LAT BOM_LON BOM_TYPE BOM_WIND BOM_PRES BOM_TNUM BOM_CI BOM_RMW BOM_R34_NE BOM_R34_SE BOM_R34_SW BOM_R34_NW BOM_R50_NE BOM_R50_SE BOM_R50_SW BOM_R50_NW BOM_R64_NE BOM_R64_SE BOM_R64_SW BOM_R64_NW BOM_ROCI BOM_POCI BOM_EYE BOM_POS_METHOD BOM_PRES_METHOD NADI_LAT NADI_LON NADI_CAT NADI_WIND NADI_PRES WELLINGTON_LAT WELLINGTON_LON WELLINGTON_WIND WELLINGTON_PRES DS824_LAT DS824_LON DS824_STAGE DS824_WIND DS824_PRES TD9636_LAT TD9636_LON TD9636_STAGE TD9636_WIND TD9636_PRES TD9635_LAT TD9635_LON TD9635_WIND TD9635_PRES TD9635_ROCI NEUMANN_LAT NEUMANN_LON NEUMANN_CLASS NEUMANN_WIND NEUMANN_PRES MLC_LAT MLC_LON MLC_CLASS MLC_WIND MLC_PRES USA_GUST BOM_GUST BOM_GUST_PER REUNION_GUST REUNION_GUST_PER USA_SEAHGT USA_SEARAD_NE USA_SEARAD_SE USA_SEARAD_SW USA_SEARAD_NW STORM_SPEED STORM_DIR
1898324N15120 1898 60 WP MM NOT_NAMED 1898-11-19 16:00:00 NR 14.7000 120.300 main 0 0 __________O___ -1 14.7000 120.300 7 8 340
1898324N15120 1898 60 WP MM NOT_NAMED 1898-11-19 18:00:00 NR 14.9416 120.208 main 0 0 __________P___ -1 14.9416 120.208 7 8 343
1898324N15120 1898 60 WP MM NOT_NAMED 1898-11-19 21:00:00 NR 15.3258 120.103 main 0 0 __________P___ -1 15.3258 120.103 7 8 352
1898324N15120 1898 60 WP MM NOT_NAMED 1898-11-20 00:00:00 NR 15.7664 120.088 main 0 0 __________P___ -1 15.7664 120.088 7 10 7
1898324N15120 1898 60 WP MM NOT_NAMED 1898-11-20 03:00:00 NR 16.2972 120.216 main 21 10 __________P___ -1 16.2972 120.216 7 11 15
1898324N15120 1898 60 WP MM NOT_NAMED 1898-11-20 04:00:00 NR 16.5000 120.300 main 10 0 __________O___ -1 16.5000 120.300 7 14 25
1898324N15120 1898 60 WP MM NOT_NAMED 1898-11-20 06:00:00 NR 16.9470 120.537 main 0 0 __________P___ -1 16.9470 120.537 7 17 31
1898324N15120 1898 60 WP MM NOT_NAMED 1898-11-20 09:00:00 NR 17.6875 121.039 main 0 0 __________P___ -1 17.6875 121.039 7 19 36
1898324N15120 1898 60 WP MM NOT_NAMED 1898-11-20 12:00:00 NR 18.4531 121.666 main 15 15 __________P___ -1 18.4531 121.666 7 20 40
1898324N15120 1898 60 WP MM NOT_NAMED 1898-11-20 15:00:00 NR 19.1784 122.363 main 90 90 __________P___ -1 19.1784 122.363 7 19 43
1898324N15120 1898 60 WP MM NOT_NAMED 1898-11-20 16:00:00 NR 19.4000 122.600 main 116 116 __________O___ -1 19.4000 122.600 7 17 46
1898324N15120 1898 60 WP MM NOT_NAMED 1898-11-20 18:00:00 NR 19.7593 123.004 main 173 173 __________P___ -1 19.7593 123.004 7 15 50
1898324N15120 1898 60 WP MM NOT_NAMED 1898-11-20 21:00:00 NR 20.2352 123.640 main 243 258 __________P___ -1 20.2352 123.640 7 16 54
1898324N15120 1898 60 WP MM NOT_NAMED 1898-11-21 00:00:00 NR 20.6783 124.335 main 331 338 __________P___ -1 20.6783 124.335 7 17 57
1898324N15120 1898 60 WP MM NOT_NAMED 1898-11-21 03:00:00 NR 21.1360 125.116 main 420 436 __________P___ -1 21.1360 125.116 7 18 58
1898324N15120 1898 60 WP MM NOT_NAMED 1898-11-21 04:00:00 NR 21.3000 125.400 main 458 458 __________O___ -1 21.3000 125.400 7 20 57
1898324N15120 1898 60 WP MM NOT_NAMED 1898-11-21 06:00:00 NR 21.6800 126.022 main 497 507 __________P___ -1 21.6800 126.022 7 22 57
1898324N15120 1898 60 WP MM NOT_NAMED 1898-11-21 09:00:00 NR 22.2813 127.044 main 575 584 __________P___ -1 22.2813 127.044 7 23 58
1898324N15120 1898 60 WP MM NOT_NAMED 1898-11-21 12:00:00 NR 22.8975 128.131 main 655 665 __________P___ -1 22.8975 128.131 7 24 59
1898324N15120 1898 60 WP MM NOT_NAMED 1898-11-21 15:00:00 NR 23.5040 129.236 main 748 758 __________P___ -1 23.5040 129.236 7 24 59
1898324N15120 1898 60 WP MM NOT_NAMED 1898-11-21 16:00:00 NR 23.7000 129.600 main 782 771 __________O___ -1 23.7000 129.600 7 23 60
1898324N15120 1898 60 WP MM NOT_NAMED 1898-11-21 18:00:00 NR 24.0793 130.313 main 771 716 __________P___ -1 24.0793 130.313 7 22 60
1898324N15120 1898 60 WP MM NOT_NAMED 1898-11-21 21:00:00 NR 24.6208 131.351 main 717 674 __________P___ -1 24.6208 131.351 7 21 60
1898324N15120 1898 60 WP MM NOT_NAMED 1898-11-22 00:00:00 NR 25.1370 132.364 main 679 650 __________P___ -1 25.1370 132.364 7 21 61
1898324N15120 1898 60 WP MM NOT_NAMED 1898-11-22 03:00:00 NR 25.6361 133.366 main 658 645 __________P___ -1 25.6361 133.366 7 21 61
1898324N15120 1898 60 WP MM NOT_NAMED 1898-11-22 04:00:00 NR 25.8000 133.700 main 650 __________O___ -1 25.8000 133.700 7 21 61

Digital Typhoon Data and Search

About IBTrACS Database

This database is a web-friendly format of International Best Track Archive for Climate Stewardship (IBTrACS), a global best track data archive curated by NOAA dating back to 1842.

Updated: 2021-10-21